YYW weather

Armstrong Airport
Armstrong, Ontario, Canada

Public forecast

Using degrees Celsius for public forecast. Weather courtesy of forecast.io.

Current aviation weather report (METAR) for Armstrong Airport

Retrieved 2020/02/26 09:00 UTC (1 hour ago):

CYYW 260900Z AUTO 00000KT 9SM -SN OVC023 M15/M17 A3039 RMK SLP332

Closest aviation forecast (TAF) to Armstrong Airport

Closest forecast is Geraldton Greenstone Regional Airport, 82.0 nm (151.8 km) ESE. Retrieved 2020/02/26 08:39 UTC (1 hour ago):

TAF CYGQ 260738Z 2608/2620 02005KT P6SM SCT015 OVC040 TEMPO 2608/2620 5SM -SN BKN015 OVC040 RMK NXT FCST BY 261400Z